CYAZ/YAZ METAR and TAF weather

Enter ICAO airport designator
Station Type Date Time Source
CYAZ METAR 2018/10/21 01:00 UTC NOAA

CYAZ 210100Z 31004KT 15SM SCT240 SCT250 12/10 A3008 RMK CI3CC1 LAST STFD OBS/NEXT 211300UTC SLP189


Station Type Date Time Source
CYAZ Decoded METAR 2018/10/21 01:00 UTC NOAA

Tofino Airport, Canada (CYAZ) 49-05N 125-46W
Oct 20, 2018 - 09:00 PM EDT / 2018.10.21 0100 UTC
Wind: from the NW (310 degrees) at 5 MPH (4 KT):0
Visibility: 15 mile(s):0
Sky conditions: partly cloudy
Temperature: 53 F (12 C)
Dew Point: 50 F (10 C)
Relative Humidity: 87%
Pressure (altimeter): 30.08 in. Hg (1018 hPa)
ob: CYAZ 210100Z 31004KT 15SM SCT240 SCT250 12/10 A3008 RMK CI3CC1 LAST STFD OBS/NEXT 211300UTC SLP189
cycle: 1

Station Type Date Time Source
CYAZ TAF 2018/10/20 18:00 UTC NOAA

TAF CYAZ 201738Z 2018/2101 VRB03KT P6SM FEW001 SCT240
TEMPO 2018/2020 5SM BR PROB30 2018/2020 2SM BR
FM202000 16005KT P6SM SKC
BECMG 2022/2024 27005KT
RMK NXT FCST WILL BE ISSUED AT 211445Z


Example: see airport list